sensor_id;sensor_type;location;lat;lon;timestamp;P1;durP1;ratioP1;P2;durP2;ratioP2
73100;SDS011;61288;53.446;-2.266;2024-01-10T00:02:20;4.10;;;1.27;;
73100;SDS011;61288;53.446;-2.266;2024-01-10T00:04:45;3.63;;;1.60;;
73100;SDS011;61288;53.446;-2.266;2024-01-10T00:07:11;3.08;;;1.25;;
73100;SDS011;61288;53.446;-2.266;2024-01-10T00:09:36;4.90;;;1.35;;
73100;SDS011;61288;53.446;-2.266;2024-01-10T00:12:02;4.78;;;1.27;;
73100;SDS011;61288;53.446;-2.266;2024-01-10T00:14:27;4.60;;;1.48;;
73100;SDS011;61288;53.446;-2.266;2024-01-10T00:16:53;5.32;;;1.30;;
73100;SDS011;61288;53.446;-2.266;2024-01-10T00:19:18;4.97;;;1.33;;
73100;SDS011;61288;53.446;-2.266;2024-01-10T00:21:44;3.95;;;1.40;;
73100;SDS011;61288;53.446;-2.266;2024-01-10T00:24:09;3.85;;;1.25;;
73100;SDS011;61288;53.446;-2.266;2024-01-10T00:26:34;3.97;;;1.30;;
73100;SDS011;61288;53.446;-2.266;2024-01-10T00:29:00;3.00;;;1.27;;
73100;SDS011;61288;53.446;-2.266;2024-01-10T00:34:14;4.65;;;1.08;;
73100;SDS011;61288;53.446;-2.266;2024-01-10T00:36:42;9.30;;;1.88;;
73100;SDS011;61288;53.446;-2.266;2024-01-10T00:39:08;3.00;;;1.15;;
73100;SDS011;61288;53.446;-2.266;2024-01-10T00:41:33;3.17;;;1.35;;
73100;SDS011;61288;53.446;-2.266;2024-01-10T00:43:59;3.92;;;1.27;;
73100;SDS011;61288;53.446;-2.266;2024-01-10T00:46:24;4.30;;;1.45;;
73100;SDS011;61288;53.446;-2.266;2024-01-10T00:48:50;3.15;;;1.10;;
73100;SDS011;61288;53.446;-2.266;2024-01-10T00:51:15;4.50;;;1.30;;
73100;SDS011;61288;53.446;-2.266;2024-01-10T00:53:41;3.55;;;1.00;;
73100;SDS011;61288;53.446;-2.266;2024-01-10T00:56:07;3.63;;;1.40;;
73100;SDS011;61288;53.446;-2.266;2024-01-10T00:58:33;3.33;;;1.20;;
73100;SDS011;61288;53.446;-2.266;2024-01-10T01:00:58;2.33;;;1.10;;
73100;SDS011;61288;53.446;-2.266;2024-01-10T01:03:24;3.65;;;1.23;;
73100;SDS011;61288;53.446;-2.266;2024-01-10T01:05:49;4.10;;;1.20;;
73100;SDS011;61288;53.446;-2.266;2024-01-10T01:08:15;3.85;;;1.00;;
73100;SDS011;61288;53.446;-2.266;2024-01-10T01:10:40;2.45;;;1.13;;
73100;SDS011;61288;53.446;-2.266;2024-01-10T01:13:06;1.65;;;0.85;;
73100;SDS011;61288;53.446;-2.266;2024-01-10T01:15:32;6.43;;;1.20;;
73100;SDS011;61288;53.446;-2.266;2024-01-10T01:17:57;2.95;;;0.90;;
73100;SDS011;61288;53.446;-2.266;2024-01-10T01:20:23;2.33;;;0.88;;
73100;SDS011;61288;53.446;-2.266;2024-01-10T01:22:48;2.47;;;0.80;;
73100;SDS011;61288;53.446;-2.266;2024-01-10T01:25:14;4.75;;;1.33;;
73100;SDS011;61288;53.446;-2.266;2024-01-10T01:27:40;2.25;;;1.10;;
73100;SDS011;61288;53.446;-2.266;2024-01-10T01:30:07;2.05;;;0.90;;
73100;SDS011;61288;53.446;-2.266;2024-01-10T01:32:33;3.20;;;1.20;;
73100;SDS011;61288;53.446;-2.266;2024-01-10T01:34:58;3.35;;;1.10;;
73100;SDS011;61288;53.446;-2.266;2024-01-10T01:37:23;2.65;;;1.13;;
73100;SDS011;61288;53.446;-2.266;2024-01-10T01:39:49;2.22;;;0.90;;
73100;SDS011;61288;53.446;-2.266;2024-01-10T01:42:15;2.88;;;1.02;;
73100;SDS011;61288;53.446;-2.266;2024-01-10T01:44:40;2.80;;;1.08;;
73100;SDS011;61288;53.446;-2.266;2024-01-10T01:47:06;2.03;;;1.08;;
73100;SDS011;61288;53.446;-2.266;2024-01-10T01:49:31;4.50;;;1.08;;
73100;SDS011;61288;53.446;-2.266;2024-01-10T01:51:57;1.90;;;1.00;;
73100;SDS011;61288;53.446;-2.266;2024-01-10T01:54:23;2.90;;;1.02;;
73100;SDS011;61288;53.446;-2.266;2024-01-10T01:56:49;2.00;;;1.00;;
73100;SDS011;61288;53.446;-2.266;2024-01-10T01:59:15;2.10;;;1.17;;
73100;SDS011;61288;53.446;-2.266;2024-01-10T02:01:41;1.00;;;0.90;;
73100;SDS011;61288;53.446;-2.266;2024-01-10T02:04:07;6.18;;;1.10;;
73100;SDS011;61288;53.446;-2.266;2024-01-10T02:06:32;3.03;;;1.02;;
73100;SDS011;61288;53.446;-2.266;2024-01-10T02:08:58;2.47;;;1.10;;
73100;SDS011;61288;53.446;-2.266;2024-01-10T02:11:25;4.32;;;1.23;;
73100;SDS011;61288;53.446;-2.266;2024-01-10T02:13:52;1.70;;;0.90;;
73100;SDS011;61288;53.446;-2.266;2024-01-10T02:16:19;2.53;;;1.15;;
73100;SDS011;61288;53.446;-2.266;2024-01-10T02:18:46;2.10;;;1.10;;
73100;SDS011;61288;53.446;-2.266;2024-01-10T02:21:11;2.78;;;1.00;;
73100;SDS011;61288;53.446;-2.266;2024-01-10T02:23:37;3.63;;;1.25;;
73100;SDS011;61288;53.446;-2.266;2024-01-10T02:26:02;1.77;;;1.15;;
73100;SDS011;61288;53.446;-2.266;2024-01-10T02:28:28;2.13;;;1.20;;
73100;SDS011;61288;53.446;-2.266;2024-01-10T02:30:54;3.53;;;1.10;;
73100;SDS011;61288;53.446;-2.266;2024-01-10T02:33:20;1.90;;;1.10;;
73100;SDS011;61288;53.446;-2.266;2024-01-10T02:35:46;2.95;;;0.98;;
73100;SDS011;61288;53.446;-2.266;2024-01-10T02:38:11;3.25;;;1.10;;
73100;SDS011;61288;53.446;-2.266;2024-01-10T02:40:37;2.38;;;1.10;;
73100;SDS011;61288;53.446;-2.266;2024-01-10T02:43:02;4.63;;;1.13;;
73100;SDS011;61288;53.446;-2.266;2024-01-10T02:45:28;2.97;;;1.20;;
73100;SDS011;61288;53.446;-2.266;2024-01-10T02:47:54;3.20;;;1.20;;
73100;SDS011;61288;53.446;-2.266;2024-01-10T02:50:19;4.55;;;1.27;;
73100;SDS011;61288;53.446;-2.266;2024-01-10T02:52:45;3.35;;;1.10;;
73100;SDS011;61288;53.446;-2.266;2024-01-10T02:55:11;1.95;;;1.10;;
73100;SDS011;61288;53.446;-2.266;2024-01-10T02:57:36;2.00;;;1.17;;
73100;SDS011;61288;53.446;-2.266;2024-01-10T03:00:02;3.78;;;1.30;;
73100;SDS011;61288;53.446;-2.266;2024-01-10T03:02:30;3.00;;;1.20;;
73100;SDS011;61288;53.446;-2.266;2024-01-10T03:04:56;1.90;;;1.15;;
73100;SDS011;61288;53.446;-2.266;2024-01-10T03:07:21;3.20;;;1.13;;
73100;SDS011;61288;53.446;-2.266;2024-01-10T03:09:49;2.40;;;1.20;;
73100;SDS011;61288;53.446;-2.266;2024-01-10T03:12:15;2.53;;;1.20;;
73100;SDS011;61288;53.446;-2.266;2024-01-10T03:14:41;2.28;;;1.20;;
73100;SDS011;61288;53.446;-2.266;2024-01-10T03:17:08;3.85;;;1.10;;
73100;SDS011;61288;53.446;-2.266;2024-01-10T03:19:33;2.25;;;1.08;;
73100;SDS011;61288;53.446;-2.266;2024-01-10T03:22:00;2.35;;;1.17;;
73100;SDS011;61288;53.446;-2.266;2024-01-10T03:24:25;2.28;;;1.40;;
73100;SDS011;61288;53.446;-2.266;2024-01-10T03:26:52;2.95;;;1.30;;
73100;SDS011;61288;53.446;-2.266;2024-01-10T03:29:18;2.17;;;1.23;;
73100;SDS011;61288;53.446;-2.266;2024-01-10T03:31:44;2.35;;;1.08;;
73100;SDS011;61288;53.446;-2.266;2024-01-10T03:34:10;2.20;;;1.00;;
73100;SDS011;61288;53.446;-2.266;2024-01-10T03:36:35;3.25;;;1.10;;
73100;SDS011;61288;53.446;-2.266;2024-01-10T03:39:01;3.03;;;1.20;;
73100;SDS011;61288;53.446;-2.266;2024-01-10T03:41:27;3.13;;;1.10;;
73100;SDS011;61288;53.446;-2.266;2024-01-10T03:43:53;3.08;;;1.13;;
73100;SDS011;61288;53.446;-2.266;2024-01-10T03:46:19;5.40;;;1.58;;
73100;SDS011;61288;53.446;-2.266;2024-01-10T03:48:45;3.05;;;1.40;;
73100;SDS011;61288;53.446;-2.266;2024-01-10T03:51:16;1.95;;;1.02;;
73100;SDS011;61288;53.446;-2.266;2024-01-10T03:53:43;3.60;;;1.05;;
73100;SDS011;61288;53.446;-2.266;2024-01-10T03:56:08;1.00;;;0.90;;
73100;SDS011;61288;53.446;-2.266;2024-01-10T03:58:34;2.40;;;1.20;;
73100;SDS011;61288;53.446;-2.266;2024-01-10T04:01:03;5.07;;;2.13;;
73100;SDS011;61288;53.446;-2.266;2024-01-10T04:03:29;2.25;;;0.98;;
73100;SDS011;61288;53.446;-2.266;2024-01-10T04:05:56;3.05;;;1.20;;
73100;SDS011;61288;53.446;-2.266;2024-01-10T04:08:22;1.63;;;0.88;;
73100;SDS011;61288;53.446;-2.266;2024-01-10T04:10:47;4.95;;;1.60;;
73100;SDS011;61288;53.446;-2.266;2024-01-10T04:13:13;2.80;;;1.15;;
73100;SDS011;61288;53.446;-2.266;2024-01-10T04:15:39;3.95;;;1.17;;
73100;SDS011;61288;53.446;-2.266;2024-01-10T04:18:05;1.80;;;1.00;;
73100;SDS011;61288;53.446;-2.266;2024-01-10T04:20:31;2.85;;;1.15;;
73100;SDS011;61288;53.446;-2.266;2024-01-10T04:22:57;3.28;;;1.00;;
73100;SDS011;61288;53.446;-2.266;2024-01-10T04:25:23;3.10;;;1.30;;
73100;SDS011;61288;53.446;-2.266;2024-01-10T04:27:48;3.50;;;1.10;;
73100;SDS011;61288;53.446;-2.266;2024-01-10T04:30:15;1.90;;;1.20;;
73100;SDS011;61288;53.446;-2.266;2024-01-10T04:32:41;1.75;;;0.88;;
73100;SDS011;61288;53.446;-2.266;2024-01-10T04:35:06;2.20;;;1.10;;
73100;SDS011;61288;53.446;-2.266;2024-01-10T04:37:32;2.97;;;1.20;;
73100;SDS011;61288;53.446;-2.266;2024-01-10T04:39:57;1.63;;;1.08;;
73100;SDS011;61288;53.446;-2.266;2024-01-10T04:42:23;3.90;;;1.35;;
73100;SDS011;61288;53.446;-2.266;2024-01-10T04:44:49;3.08;;;1.40;;
73100;SDS011;61288;53.446;-2.266;2024-01-10T04:47:15;5.10;;;1.40;;
73100;SDS011;61288;53.446;-2.266;2024-01-10T04:49:41;3.83;;;1.52;;
73100;SDS011;61288;53.446;-2.266;2024-01-10T04:52:06;4.25;;;1.30;;
73100;SDS011;61288;53.446;-2.266;2024-01-10T04:54:32;3.15;;;1.33;;
73100;SDS011;61288;53.446;-2.266;2024-01-10T04:56:58;2.88;;;1.30;;
73100;SDS011;61288;53.446;-2.266;2024-01-10T04:59:23;4.82;;;1.50;;
73100;SDS011;61288;53.446;-2.266;2024-01-10T05:01:49;3.97;;;1.50;;
73100;SDS011;61288;53.446;-2.266;2024-01-10T05:04:15;4.60;;;1.50;;
73100;SDS011;61288;53.446;-2.266;2024-01-10T05:06:41;5.70;;;1.77;;
73100;SDS011;61288;53.446;-2.266;2024-01-10T05:09:06;6.13;;;1.80;;
73100;SDS011;61288;53.446;-2.266;2024-01-10T05:11:32;5.45;;;1.77;;
73100;SDS011;61288;53.446;-2.266;2024-01-10T05:14:01;7.35;;;2.00;;
73100;SDS011;61288;53.446;-2.266;2024-01-10T05:16:28;4.80;;;1.65;;
73100;SDS011;61288;53.446;-2.266;2024-01-10T05:18:53;4.95;;;1.80;;
73100;SDS011;61288;53.446;-2.266;2024-01-10T05:21:19;4.20;;;1.70;;
73100;SDS011;61288;53.446;-2.266;2024-01-10T05:23:45;4.85;;;1.70;;
73100;SDS011;61288;53.446;-2.266;2024-01-10T05:26:10;4.57;;;1.63;;
73100;SDS011;61288;53.446;-2.266;2024-01-10T05:28:36;5.72;;;1.65;;
73100;SDS011;61288;53.446;-2.266;2024-01-10T05:31:01;5.00;;;1.60;;
73100;SDS011;61288;53.446;-2.266;2024-01-10T05:33:27;6.40;;;1.52;;
73100;SDS011;61288;53.446;-2.266;2024-01-10T05:35:52;3.03;;;1.40;;
73100;SDS011;61288;53.446;-2.266;2024-01-10T05:38:18;4.53;;;1.70;;
73100;SDS011;61288;53.446;-2.266;2024-01-10T05:40:43;4.57;;;1.60;;
73100;SDS011;61288;53.446;-2.266;2024-01-10T05:43:09;1.88;;;1.30;;
73100;SDS011;61288;53.446;-2.266;2024-01-10T05:45:35;3.97;;;1.65;;
73100;SDS011;61288;53.446;-2.266;2024-01-10T05:48:01;4.45;;;1.42;;
73100;SDS011;61288;53.446;-2.266;2024-01-10T05:50:26;3.20;;;1.45;;
73100;SDS011;61288;53.446;-2.266;2024-01-10T05:52:51;2.88;;;1.30;;
73100;SDS011;61288;53.446;-2.266;2024-01-10T05:55:18;2.63;;;1.23;;
73100;SDS011;61288;53.446;-2.266;2024-01-10T05:57:44;2.90;;;1.20;;
73100;SDS011;61288;53.446;-2.266;2024-01-10T06:00:09;3.45;;;1.20;;
73100;SDS011;61288;53.446;-2.266;2024-01-10T06:02:36;3.80;;;1.30;;
73100;SDS011;61288;53.446;-2.266;2024-01-10T06:05:05;3.75;;;1.20;;
73100;SDS011;61288;53.446;-2.266;2024-01-10T06:07:35;1.80;;;1.13;;
73100;SDS011;61288;53.446;-2.266;2024-01-10T06:10:04;2.55;;;1.30;;
73100;SDS011;61288;53.446;-2.266;2024-01-10T06:12:31;2.65;;;1.20;;
73100;SDS011;61288;53.446;-2.266;2024-01-10T06:14:57;3.53;;;1.30;;
73100;SDS011;61288;53.446;-2.266;2024-01-10T06:17:23;2.55;;;1.20;;
73100;SDS011;61288;53.446;-2.266;2024-01-10T06:19:49;3.53;;;1.30;;
73100;SDS011;61288;53.446;-2.266;2024-01-10T06:22:15;4.03;;;1.35;;
73100;SDS011;61288;53.446;-2.266;2024-01-10T06:24:41;5.28;;;1.60;;
73100;SDS011;61288;53.446;-2.266;2024-01-10T06:27:07;4.95;;;1.60;;
73100;SDS011;61288;53.446;-2.266;2024-01-10T06:29:33;3.67;;;1.33;;
73100;SDS011;61288;53.446;-2.266;2024-01-10T06:31:59;4.18;;;1.50;;
73100;SDS011;61288;53.446;-2.266;2024-01-10T06:34:26;5.80;;;1.52;;
73100;SDS011;61288;53.446;-2.266;2024-01-10T06:36:52;5.15;;;1.50;;
73100;SDS011;61288;53.446;-2.266;2024-01-10T06:39:18;5.30;;;1.60;;
73100;SDS011;61288;53.446;-2.266;2024-01-10T06:41:48;5.15;;;1.50;;
73100;SDS011;61288;53.446;-2.266;2024-01-10T06:44:14;4.72;;;1.40;;
73100;SDS011;61288;53.446;-2.266;2024-01-10T06:46:43;4.63;;;1.65;;
73100;SDS011;61288;53.446;-2.266;2024-01-10T06:49:09;3.60;;;1.20;;
73100;SDS011;61288;53.446;-2.266;2024-01-10T06:51:35;6.97;;;1.40;;
73100;SDS011;61288;53.446;-2.266;2024-01-10T06:54:00;5.07;;;1.40;;
73100;SDS011;61288;53.446;-2.266;2024-01-10T06:56:31;4.93;;;1.30;;
73100;SDS011;61288;53.446;-2.266;2024-01-10T06:58:58;7.22;;;1.50;;
73100;SDS011;61288;53.446;-2.266;2024-01-10T07:01:26;3.40;;;1.30;;
73100;SDS011;61288;53.446;-2.266;2024-01-10T07:03:52;3.13;;;1.10;;
73100;SDS011;61288;53.446;-2.266;2024-01-10T07:06:22;4.80;;;1.50;;
73100;SDS011;61288;53.446;-2.266;2024-01-10T07:08:48;3.30;;;1.40;;
73100;SDS011;61288;53.446;-2.266;2024-01-10T07:11:15;3.60;;;1.48;;
73100;SDS011;61288;53.446;-2.266;2024-01-10T07:13:41;6.53;;;1.52;;
73100;SDS011;61288;53.446;-2.266;2024-01-10T07:16:07;3.72;;;1.30;;
73100;SDS011;61288;53.446;-2.266;2024-01-10T07:18:34;5.00;;;1.30;;
73100;SDS011;61288;53.446;-2.266;2024-01-10T07:20:59;3.75;;;1.67;;
73100;SDS011;61288;53.446;-2.266;2024-01-10T07:23:25;2.55;;;1.30;;
73100;SDS011;61288;53.446;-2.266;2024-01-10T07:25:52;4.15;;;1.50;;
73100;SDS011;61288;53.446;-2.266;2024-01-10T07:28:18;4.13;;;1.60;;
73100;SDS011;61288;53.446;-2.266;2024-01-10T07:30:44;3.78;;;1.48;;
73100;SDS011;61288;53.446;-2.266;2024-01-10T07:33:11;6.13;;;1.73;;
73100;SDS011;61288;53.446;-2.266;2024-01-10T07:35:37;8.05;;;2.05;;
73100;SDS011;61288;53.446;-2.266;2024-01-10T07:38:04;6.50;;;2.00;;
73100;SDS011;61288;53.446;-2.266;2024-01-10T07:40:34;6.25;;;1.95;;
73100;SDS011;61288;53.446;-2.266;2024-01-10T07:42:59;5.57;;;1.88;;
73100;SDS011;61288;53.446;-2.266;2024-01-10T07:45:25;6.80;;;1.98;;
73100;SDS011;61288;53.446;-2.266;2024-01-10T07:47:51;8.38;;;2.40;;
73100;SDS011;61288;53.446;-2.266;2024-01-10T07:50:17;7.53;;;2.08;;
73100;SDS011;61288;53.446;-2.266;2024-01-10T07:52:44;8.05;;;2.05;;
73100;SDS011;61288;53.446;-2.266;2024-01-10T07:55:11;6.18;;;1.90;;
73100;SDS011;61288;53.446;-2.266;2024-01-10T07:57:37;6.28;;;2.13;;
73100;SDS011;61288;53.446;-2.266;2024-01-10T08:00:06;9.25;;;2.03;;
73100;SDS011;61288;53.446;-2.266;2024-01-10T08:02:36;6.13;;;1.80;;
73100;SDS011;61288;53.446;-2.266;2024-01-10T08:05:02;7.10;;;2.03;;
73100;SDS011;61288;53.446;-2.266;2024-01-10T08:07:38;8.02;;;1.80;;
73100;SDS011;61288;53.446;-2.266;2024-01-10T08:10:07;4.45;;;1.70;;
73100;SDS011;61288;53.446;-2.266;2024-01-10T08:12:37;4.85;;;1.50;;
73100;SDS011;61288;53.446;-2.266;2024-01-10T08:15:04;4.15;;;1.40;;
73100;SDS011;61288;53.446;-2.266;2024-01-10T08:17:31;5.15;;;1.65;;
73100;SDS011;61288;53.446;-2.266;2024-01-10T08:19:57;5.45;;;1.73;;
73100;SDS011;61288;53.446;-2.266;2024-01-10T08:22:23;5.63;;;1.58;;
73100;SDS011;61288;53.446;-2.266;2024-01-10T08:24:48;4.68;;;1.50;;
73100;SDS011;61288;53.446;-2.266;2024-01-10T08:27:14;5.85;;;1.63;;
73100;SDS011;61288;53.446;-2.266;2024-01-10T08:29:39;4.60;;;1.63;;
73100;SDS011;61288;53.446;-2.266;2024-01-10T08:32:05;5.90;;;1.73;;
73100;SDS011;61288;53.446;-2.266;2024-01-10T08:34:31;4.05;;;1.50;;
73100;SDS011;61288;53.446;-2.266;2024-01-10T08:36:57;4.18;;;1.42;;
73100;SDS011;61288;53.446;-2.266;2024-01-10T08:39:22;3.40;;;1.45;;
73100;SDS011;61288;53.446;-2.266;2024-01-10T08:41:49;3.28;;;1.45;;
73100;SDS011;61288;53.446;-2.266;2024-01-10T08:44:15;5.45;;;1.48;;
73100;SDS011;61288;53.446;-2.266;2024-01-10T08:46:41;5.35;;;1.30;;
73100;SDS011;61288;53.446;-2.266;2024-01-10T08:49:06;5.72;;;1.63;;
73100;SDS011;61288;53.446;-2.266;2024-01-10T08:51:32;4.90;;;1.55;;
73100;SDS011;61288;53.446;-2.266;2024-01-10T08:53:57;3.42;;;1.33;;
73100;SDS011;61288;53.446;-2.266;2024-01-10T08:56:25;9.43;;;1.88;;
73100;SDS011;61288;53.446;-2.266;2024-01-10T08:58:51;7.15;;;1.88;;
73100;SDS011;61288;53.446;-2.266;2024-01-10T09:01:17;6.30;;;1.70;;
73100;SDS011;61288;53.446;-2.266;2024-01-10T09:03:44;6.53;;;2.00;;
73100;SDS011;61288;53.446;-2.266;2024-01-10T09:06:09;7.18;;;2.05;;
73100;SDS011;61288;53.446;-2.266;2024-01-10T09:08:35;7.15;;;2.10;;
73100;SDS011;61288;53.446;-2.266;2024-01-10T09:11:00;7.35;;;2.25;;
73100;SDS011;61288;53.446;-2.266;2024-01-10T09:13:26;7.88;;;1.98;;
73100;SDS011;61288;53.446;-2.266;2024-01-10T09:15:52;7.38;;;2.20;;
73100;SDS011;61288;53.446;-2.266;2024-01-10T09:18:18;8.02;;;2.45;;
73100;SDS011;61288;53.446;-2.266;2024-01-10T09:20:43;7.93;;;2.30;;
73100;SDS011;61288;53.446;-2.266;2024-01-10T09:23:09;7.65;;;2.30;;
73100;SDS011;61288;53.446;-2.266;2024-01-10T09:25:36;7.95;;;2.33;;
73100;SDS011;61288;53.446;-2.266;2024-01-10T09:28:03;7.63;;;1.85;;
73100;SDS011;61288;53.446;-2.266;2024-01-10T09:30:30;7.70;;;1.90;;
73100;SDS011;61288;53.446;-2.266;2024-01-10T09:32:55;7.22;;;2.25;;
73100;SDS011;61288;53.446;-2.266;2024-01-10T09:35:22;6.90;;;2.33;;
73100;SDS011;61288;53.446;-2.266;2024-01-10T09:37:48;10.43;;;2.35;;
73100;SDS011;61288;53.446;-2.266;2024-01-10T09:40:14;8.43;;;2.22;;
73100;SDS011;61288;53.446;-2.266;2024-01-10T09:42:42;6.30;;;2.08;;
73100;SDS011;61288;53.446;-2.266;2024-01-10T09:45:09;8.23;;;2.40;;
73100;SDS011;61288;53.446;-2.266;2024-01-10T09:47:38;7.55;;;2.05;;
73100;SDS011;61288;53.446;-2.266;2024-01-10T09:50:07;7.88;;;2.50;;
73100;SDS011;61288;53.446;-2.266;2024-01-10T09:52:39;15.95;;;2.92;;
73100;SDS011;61288;53.446;-2.266;2024-01-10T09:55:11;7.25;;;2.30;;
73100;SDS011;61288;53.446;-2.266;2024-01-10T09:57:39;5.88;;;2.10;;
73100;SDS011;61288;53.446;-2.266;2024-01-10T10:00:06;5.55;;;2.05;;
73100;SDS011;61288;53.446;-2.266;2024-01-10T10:02:36;5.53;;;1.90;;
73100;SDS011;61288;53.446;-2.266;2024-01-10T10:05:04;9.70;;;2.20;;
73100;SDS011;61288;53.446;-2.266;2024-01-10T10:07:49;4.45;;;1.73;;
73100;SDS011;61288;53.446;-2.266;2024-01-10T10:15:13;4.07;;;1.63;;
73100;SDS011;61288;53.446;-2.266;2024-01-10T10:17:43;6.88;;;2.08;;
73100;SDS011;61288;53.446;-2.266;2024-01-10T10:20:23;4.03;;;1.52;;
73100;SDS011;61288;53.446;-2.266;2024-01-10T10:25:34;3.60;;;1.60;;
73100;SDS011;61288;53.446;-2.266;2024-01-10T10:28:10;2.22;;;1.13;;
73100;SDS011;61288;53.446;-2.266;2024-01-10T10:30:36;3.38;;;1.35;;
73100;SDS011;61288;53.446;-2.266;2024-01-10T10:33:02;1.90;;;1.10;;
73100;SDS011;61288;53.446;-2.266;2024-01-10T10:35:28;5.50;;;1.50;;
73100;SDS011;61288;53.446;-2.266;2024-01-10T10:37:53;3.33;;;1.48;;
73100;SDS011;61288;53.446;-2.266;2024-01-10T10:40:19;5.13;;;1.80;;
73100;SDS011;61288;53.446;-2.266;2024-01-10T10:42:46;5.10;;;1.83;;
73100;SDS011;61288;53.446;-2.266;2024-01-10T10:45:16;5.18;;;1.75;;
73100;SDS011;61288;53.446;-2.266;2024-01-10T10:47:44;4.07;;;1.52;;
73100;SDS011;61288;53.446;-2.266;2024-01-10T10:50:17;6.85;;;1.70;;
73100;SDS011;61288;53.446;-2.266;2024-01-10T10:52:48;5.93;;;1.75;;
73100;SDS011;61288;53.446;-2.266;2024-01-10T10:55:16;5.07;;;1.85;;
73100;SDS011;61288;53.446;-2.266;2024-01-10T10:57:46;5.07;;;1.55;;
73100;SDS011;61288;53.446;-2.266;2024-01-10T11:00:14;4.10;;;1.48;;
73100;SDS011;61288;53.446;-2.266;2024-01-10T11:02:41;4.05;;;1.60;;
73100;SDS011;61288;53.446;-2.266;2024-01-10T11:05:08;5.03;;;1.60;;
73100;SDS011;61288;53.446;-2.266;2024-01-10T11:07:37;6.07;;;1.80;;
73100;SDS011;61288;53.446;-2.266;2024-01-10T11:10:06;3.00;;;1.60;;
73100;SDS011;61288;53.446;-2.266;2024-01-10T11:21:18;6.75;;;2.17;;
73100;SDS011;61288;53.446;-2.266;2024-01-10T11:23:59;7.15;;;2.33;;
73100;SDS011;61288;53.446;-2.266;2024-01-10T11:26:26;7.40;;;2.15;;
73100;SDS011;61288;53.446;-2.266;2024-01-10T11:28:52;7.88;;;2.15;;
73100;SDS011;61288;53.446;-2.266;2024-01-10T11:31:27;7.00;;;2.47;;
73100;SDS011;61288;53.446;-2.266;2024-01-10T11:33:56;7.57;;;2.47;;
73100;SDS011;61288;53.446;-2.266;2024-01-10T11:36:26;7.03;;;2.47;;
73100;SDS011;61288;53.446;-2.266;2024-01-10T11:41:28;8.82;;;2.33;;
73100;SDS011;61288;53.446;-2.266;2024-01-10T11:46:33;8.00;;;2.50;;
73100;SDS011;61288;53.446;-2.266;2024-01-10T11:48:59;9.68;;;2.60;;
73100;SDS011;61288;53.446;-2.266;2024-01-10T11:51:25;6.97;;;2.40;;
73100;SDS011;61288;53.446;-2.266;2024-01-10T11:53:51;8.23;;;2.38;;
73100;SDS011;61288;53.446;-2.266;2024-01-10T11:56:18;10.93;;;2.30;;
73100;SDS011;61288;53.446;-2.266;2024-01-10T11:59:02;6.47;;;2.15;;
73100;SDS011;61288;53.446;-2.266;2024-01-10T12:01:29;6.88;;;2.10;;
73100;SDS011;61288;53.446;-2.266;2024-01-10T12:03:55;6.45;;;2.38;;
73100;SDS011;61288;53.446;-2.266;2024-01-10T12:06:21;7.53;;;2.45;;
73100;SDS011;61288;53.446;-2.266;2024-01-10T12:08:48;6.18;;;2.10;;
73100;SDS011;61288;53.446;-2.266;2024-01-10T12:11:14;3.90;;;1.70;;
73100;SDS011;61288;53.446;-2.266;2024-01-10T12:13:41;4.95;;;1.85;;
73100;SDS011;61288;53.446;-2.266;2024-01-10T12:16:06;3.90;;;1.48;;
73100;SDS011;61288;53.446;-2.266;2024-01-10T12:18:32;4.65;;;1.70;;
73100;SDS011;61288;53.446;-2.266;2024-01-10T12:20:57;5.25;;;1.90;;
73100;SDS011;61288;53.446;-2.266;2024-01-10T12:23:23;3.95;;;1.67;;
73100;SDS011;61288;53.446;-2.266;2024-01-10T12:25:49;4.68;;;1.60;;
73100;SDS011;61288;53.446;-2.266;2024-01-10T12:28:17;3.47;;;1.48;;
73100;SDS011;61288;53.446;-2.266;2024-01-10T12:30:44;4.57;;;1.52;;
73100;SDS011;61288;53.446;-2.266;2024-01-10T12:33:10;3.45;;;1.40;;
73100;SDS011;61288;53.446;-2.266;2024-01-10T12:35:36;3.95;;;1.50;;
73100;SDS011;61288;53.446;-2.266;2024-01-10T12:38:06;3.33;;;1.45;;
73100;SDS011;61288;53.446;-2.266;2024-01-10T12:40:32;5.78;;;1.60;;
73100;SDS011;61288;53.446;-2.266;2024-01-10T12:43:06;4.63;;;1.48;;
73100;SDS011;61288;53.446;-2.266;2024-01-10T12:45:33;2.88;;;1.40;;
73100;SDS011;61288;53.446;-2.266;2024-01-10T12:47:58;3.85;;;1.65;;
73100;SDS011;61288;53.446;-2.266;2024-01-10T12:50:24;5.38;;;1.45;;
73100;SDS011;61288;53.446;-2.266;2024-01-10T12:52:52;3.78;;;1.40;;
73100;SDS011;61288;53.446;-2.266;2024-01-10T12:55:18;4.78;;;1.52;;
73100;SDS011;61288;53.446;-2.266;2024-01-10T12:57:44;3.65;;;1.40;;
73100;SDS011;61288;53.446;-2.266;2024-01-10T13:00:09;4.28;;;1.20;;
73100;SDS011;61288;53.446;-2.266;2024-01-10T13:02:36;2.70;;;1.30;;
73100;SDS011;61288;53.446;-2.266;2024-01-10T13:05:03;3.22;;;1.30;;
73100;SDS011;61288;53.446;-2.266;2024-01-10T13:07:29;4.57;;;1.30;;
73100;SDS011;61288;53.446;-2.266;2024-01-10T13:09:59;8.57;;;1.45;;
73100;SDS011;61288;53.446;-2.266;2024-01-10T13:12:25;6.10;;;1.40;;
73100;SDS011;61288;53.446;-2.266;2024-01-10T13:14:50;3.13;;;1.17;;
73100;SDS011;61288;53.446;-2.266;2024-01-10T13:17:16;3.35;;;1.40;;
73100;SDS011;61288;53.446;-2.266;2024-01-10T13:19:41;3.00;;;1.13;;
73100;SDS011;61288;53.446;-2.266;2024-01-10T13:22:10;1.63;;;1.00;;
73100;SDS011;61288;53.446;-2.266;2024-01-10T13:24:39;2.42;;;1.10;;
73100;SDS011;61288;53.446;-2.266;2024-01-10T13:27:04;3.65;;;1.20;;
73100;SDS011;61288;53.446;-2.266;2024-01-10T13:29:30;4.38;;;1.52;;
73100;SDS011;61288;53.446;-2.266;2024-01-10T13:31:55;7.05;;;1.70;;
73100;SDS011;61288;53.446;-2.266;2024-01-10T13:34:21;5.78;;;1.88;;
73100;SDS011;61288;53.446;-2.266;2024-01-10T13:36:47;5.35;;;1.60;;
73100;SDS011;61288;53.446;-2.266;2024-01-10T13:39:12;7.15;;;1.60;;
73100;SDS011;61288;53.446;-2.266;2024-01-10T13:41:40;4.88;;;1.77;;
73100;SDS011;61288;53.446;-2.266;2024-01-10T13:44:06;4.57;;;1.58;;
73100;SDS011;61288;53.446;-2.266;2024-01-10T13:46:31;3.03;;;1.15;;
73100;SDS011;61288;53.446;-2.266;2024-01-10T13:48:56;4.10;;;1.20;;
73100;SDS011;61288;53.446;-2.266;2024-01-10T13:51:22;3.40;;;1.20;;
73100;SDS011;61288;53.446;-2.266;2024-01-10T13:53:47;4.00;;;1.30;;
73100;SDS011;61288;53.446;-2.266;2024-01-10T13:56:13;2.40;;;0.90;;
73100;SDS011;61288;53.446;-2.266;2024-01-10T13:58:38;2.63;;;1.08;;
73100;SDS011;61288;53.446;-2.266;2024-01-10T14:01:03;4.43;;;1.08;;
73100;SDS011;61288;53.446;-2.266;2024-01-10T14:03:29;2.72;;;1.10;;
73100;SDS011;61288;53.446;-2.266;2024-01-10T14:05:54;3.40;;;0.95;;
73100;SDS011;61288;53.446;-2.266;2024-01-10T14:08:20;2.70;;;1.10;;
73100;SDS011;61288;53.446;-2.266;2024-01-10T14:10:45;2.65;;;0.90;;
73100;SDS011;61288;53.446;-2.266;2024-01-10T14:13:11;2.80;;;0.93;;
73100;SDS011;61288;53.446;-2.266;2024-01-10T14:15:36;4.75;;;1.20;;
73100;SDS011;61288;53.446;-2.266;2024-01-10T14:18:02;2.20;;;1.02;;
73100;SDS011;61288;53.446;-2.266;2024-01-10T14:20:27;5.20;;;1.50;;
73100;SDS011;61288;53.446;-2.266;2024-01-10T14:22:53;3.13;;;1.23;;
73100;SDS011;61288;53.446;-2.266;2024-01-10T14:25:19;2.70;;;1.30;;
73100;SDS011;61288;53.446;-2.266;2024-01-10T14:27:45;2.47;;;1.20;;
73100;SDS011;61288;53.446;-2.266;2024-01-10T14:30:11;3.30;;;1.30;;
73100;SDS011;61288;53.446;-2.266;2024-01-10T14:32:39;6.18;;;1.90;;
73100;SDS011;61288;53.446;-2.266;2024-01-10T14:35:04;8.63;;;2.80;;
73100;SDS011;61288;53.446;-2.266;2024-01-10T14:37:32;5.72;;;1.70;;
73100;SDS011;61288;53.446;-2.266;2024-01-10T14:40:01;4.93;;;1.45;;
73100;SDS011;61288;53.446;-2.266;2024-01-10T14:42:26;5.20;;;1.52;;
73100;SDS011;61288;53.446;-2.266;2024-01-10T14:44:52;6.35;;;1.20;;
73100;SDS011;61288;53.446;-2.266;2024-01-10T14:47:18;3.35;;;1.48;;
73100;SDS011;61288;53.446;-2.266;2024-01-10T14:49:44;5.22;;;1.50;;
73100;SDS011;61288;53.446;-2.266;2024-01-10T14:52:10;4.28;;;1.60;;
73100;SDS011;61288;53.446;-2.266;2024-01-10T14:54:36;7.72;;;1.98;;